Time;durP1;ratioP1;P1;durP2;ratioP2;P2;SDS_P1;SDS_P2;PMS_P1;PMS_P2;Temp;Humidity;BMP_temperature;BMP_pressure;BME280_temperature;BME280_humidity;BME280_pressure;Samples;Min_cycle;Max_cycle;Signal;HPM_P1;HPM_P2
2021/08/06 00:01:01;;;;;;;5.47;4.65;;;;;;;16.47;80.83;99791.38;4971728;28;20497;-83
2021/08/06 00:03:27;;;;;;;6.03;5.30;;;;;;;16.41;80.90;99786.31;4992749;28;20066;-83
2021/08/06 00:05:54;;;;;;;5.60;4.53;;;;;;;16.42;81.17;99780.91;4991622;28;20509;-83
2021/08/06 00:08:22;;;;;;;7.43;4.55;;;;;;;16.50;80.69;99783.25;4992218;28;20034;-83
2021/08/06 00:10:48;;;;;;;8.23;4.82;;;;;;;16.55;80.19;99781.25;4992642;28;20038;-83
2021/08/06 00:13:13;;;;;;;5.38;4.55;;;;;;;16.61;79.80;99783.69;4972494;28;20046;-83
2021/08/06 00:15:39;;;;;;;5.47;4.10;;;;;;;16.65;79.61;99777.28;4975703;28;20035;-82
2021/08/06 00:18:04;;;;;;;7.57;3.78;;;;;;;16.72;78.99;99779.69;4992024;28;20086;-82
2021/08/06 00:20:30;;;;;;;4.97;4.18;;;;;;;16.79;79.39;99775.84;4973565;28;20039;-83
2021/08/06 00:22:56;;;;;;;5.35;4.43;;;;;;;16.84;79.11;99771.16;4993457;28;20538;-83
2021/08/06 00:25:22;;;;;;;5.40;3.90;;;;;;;16.88;79.38;99774.59;4974670;28;20038;-83
2021/08/06 00:27:47;;;;;;;6.15;4.22;;;;;;;16.88;79.43;99770.13;4992369;28;20035;-82
2021/08/06 00:30:12;;;;;;;4.85;4.32;;;;;;;16.89;79.53;99770.97;4997222;28;20030;-83
2021/08/06 00:32:38;;;;;;;5.03;4.10;;;;;;;16.91;79.50;99769.97;4992504;28;20031;-83
2021/08/06 00:35:10;;;;;;;5.50;3.90;;;;;;;16.96;79.35;99775.97;4990467;28;20042;-83
2021/08/06 00:37:36;;;;;;;5.65;4.70;;;;;;;16.96;79.15;99772.44;4993996;28;20035;-82
2021/08/06 00:40:04;;;;;;;4.72;3.72;;;;;;;17.00;79.02;99769.59;4995739;28;20043;-82
2021/08/06 00:42:33;;;;;;;5.30;4.70;;;;;;;17.05;78.85;99774.69;4992206;28;20259;-83
2021/08/06 00:44:59;;;;;;;4.93;4.22;;;;;;;17.04;79.08;99771.16;4981319;28;20536;-83
2021/08/06 00:47:29;;;;;;;8.82;3.92;;;;;;;16.97;79.18;99774.16;4990976;28;20085;-83
2021/08/06 00:49:56;;;;;;;6.20;5.03;;;;;;;17.00;79.35;99766.91;4992995;28;20527;-82
2021/08/06 00:52:22;;;;;;;9.85;4.22;;;;;;;17.04;79.08;99776.50;4974246;28;20031;-83
2021/08/06 00:54:50;;;;;;;5.53;4.47;;;;;;;17.03;79.28;99769.44;4977122;28;20500;-82
2021/08/06 00:57:16;;;;;;;6.00;5.00;;;;;;;17.03;79.33;99769.44;4992663;28;20031;-83
2021/08/06 00:59:46;;;;;;;5.90;4.20;;;;;;;17.06;79.31;99771.09;4975928;28;20027;-83
2021/08/06 01:02:35;;;;;;;6.90;4.28;;;;;;;17.07;79.17;99764.81;4978665;28;20034;-83
2021/08/06 01:05:11;;;;;;;4.78;4.28;;;;;;;17.05;79.53;99764.03;4997270;28;20115;-83
2021/08/06 01:08:16;;;;;;;6.70;4.50;;;;;;;17.02;79.09;99764.16;4995517;28;20026;-83
2021/08/06 01:10:47;;;;;;;5.22;4.47;;;;;;;17.06;79.31;99763.97;4943670;28;20046;-83
2021/08/06 01:13:25;;;;;;;6.53;4.20;;;;;;;17.11;78.94;99765.53;4979158;28;20039;-82
2021/08/06 01:15:54;;;;;;;5.15;4.40;;;;;;;17.12;78.92;99762.81;4977035;28;20035;-83
2021/08/06 01:18:22;;;;;;;5.25;4.10;;;;;;;17.01;79.40;99765.09;4998417;28;20038;-83
2021/08/06 01:20:55;;;;;;;5.70;3.85;;;;;;;16.98;79.82;99766.13;4975439;28;20034;-83
2021/08/06 01:23:34;;;;;;;6.10;4.10;;;;;;;16.99;79.64;99761.63;4982010;28;20102;-82
2021/08/06 01:26:04;;;;;;;5.03;3.65;;;;;;;17.00;79.26;99753.59;4973733;28;20039;-82
2021/08/06 01:28:40;;;;;;;7.28;4.32;;;;;;;16.99;79.52;99750.97;4979413;28;20030;-82
2021/08/06 01:31:07;;;;;;;4.95;4.10;;;;;;;16.98;79.29;99750.13;4993712;28;20034;-82
2021/08/06 01:33:40;;;;;;;5.32;4.18;;;;;;;17.00;79.09;99750.91;4997350;28;20030;-82
2021/08/06 01:36:06;;;;;;;5.97;4.55;;;;;;;16.96;79.26;99743.97;4993251;28;20074;-82
2021/08/06 01:38:33;;;;;;;5.43;4.90;;;;;;;16.91;79.91;99740.66;4993282;28;20025;-82
2021/08/06 01:41:24;;;;;;;5.57;4.57;;;;;;;16.91;80.06;99743.31;4997900;28;20468;-83
2021/08/06 01:44:20;;;;;;;7.55;4.97;;;;;;;16.90;79.80;99746.03;4995159;28;20042;-83
2021/08/06 01:47:10;;;;;;;6.70;4.85;;;;;;;16.91;79.67;99748.66;4993675;28;20034;-82
2021/08/06 01:49:47;;;;;;;5.65;4.38;;;;;;;16.86;79.71;99740.00;4962172;28;20438;-82
2021/08/06 01:52:17;;;;;;;6.60;4.65;;;;;;;16.86;79.90;99750.66;4977836;28;20030;-83
2021/08/06 01:54:47;;;;;;;6.38;4.78;;;;;;;16.86;79.88;99743.53;4996048;28;20061;-83
2021/08/06 01:57:13;;;;;;;6.32;4.30;;;;;;;16.90;79.60;99746.94;4976936;28;20050;-83
2021/08/06 01:59:42;;;;;;;6.50;4.80;;;;;;;16.88;79.82;99750.59;4965677;28;20039;-83
2021/08/06 02:02:08;;;;;;;5.40;4.57;;;;;;;16.89;79.49;99745.19;4978959;28;20185;-83
2021/08/06 02:04:35;;;;;;;5.90;5.03;;;;;;;16.90;79.67;99741.59;4977961;28;20404;-82
2021/08/06 02:07:16;;;;;;;5.63;4.30;;;;;;;16.93;79.57;99736.13;4995645;28;20116;-82
2021/08/06 02:09:42;;;;;;;7.15;5.45;;;;;;;16.89;79.66;99734.53;4980414;28;20034;-82
2021/08/06 02:12:13;;;;;;;5.65;4.85;;;;;;;16.76;80.11;99736.84;4977230;28;20077;-83
2021/08/06 02:14:48;;;;;;;7.75;5.20;;;;;;;16.81;80.30;99726.00;4965536;28;20113;-83
2021/08/06 02:17:18;;;;;;;6.03;4.50;;;;;;;16.81;79.97;99723.34;4993277;28;20038;-83
2021/08/06 02:19:43;;;;;;;4.93;4.20;;;;;;;16.73;79.72;99725.47;4980294;28;20053;-82
2021/08/06 02:22:12;;;;;;;5.38;4.65;;;;;;;16.67;80.32;99723.06;4991702;28;20039;-82
2021/08/06 02:24:42;;;;;;;6.35;4.10;;;;;;;16.68;80.17;99719.47;4996282;28;20033;-82
2021/08/06 02:27:12;;;;;;;7.70;5.10;;;;;;;16.66;80.07;99716.84;4979085;28;20098;-81
2021/08/06 02:29:40;;;;;;;6.15;5.15;;;;;;;16.64;80.40;99726.75;4993935;28;20046;-83
2021/08/06 02:32:10;;;;;;;6.00;4.83;;;;;;;16.54;80.69;99723.59;4979690;28;20497;-82
2021/08/06 02:34:38;;;;;;;6.68;5.63;;;;;;;16.54;81.06;99723.59;4977795;28;20082;-83
2021/08/06 02:37:04;;;;;;;8.45;6.15;;;;;;;16.52;80.81;99733.44;4983449;28;20043;-82
2021/08/06 02:39:31;;;;;;;10.23;8.55;;;;;;;16.55;80.79;99727.97;4998927;28;20096;-83
2021/08/06 02:42:01;;;;;;;12.82;8.38;;;;;;;16.57;80.71;99720.78;4978534;28;20038;-83
2021/08/06 02:44:27;;;;;;;8.63;7.70;;;;;;;16.59;80.47;99718.09;4994889;28;20063;-83
2021/08/06 02:46:52;;;;;;;7.70;6.90;;;;;;;16.56;80.58;99716.41;4981058;28;20026;-81
2021/08/06 02:49:18;;;;;;;7.97;7.18;;;;;;;16.50;81.01;99722.00;4976641;28;20035;-82
2021/08/06 02:51:43;;;;;;;8.13;7.07;;;;;;;16.49;80.90;99722.06;4979434;28;20074;-82
2021/08/06 02:54:09;;;;;;;9.48;7.78;;;;;;;16.51;80.71;99723.75;4981608;28;20452;-81
2021/08/06 02:56:36;;;;;;;7.45;6.65;;;;;;;16.51;80.76;99718.41;4997163;28;20086;-82
2021/08/06 02:59:02;;;;;;;9.20;8.30;;;;;;;16.50;80.61;99716.66;4996954;28;20022;-82
2021/08/06 03:01:29;;;;;;;10.35;8.82;;;;;;;16.52;80.55;99713.94;4978163;28;20034;-82
2021/08/06 03:03:57;;;;;;;10.25;9.15;;;;;;;16.52;80.72;99717.47;4995174;28;20034;-82
2021/08/06 03:06:23;;;;;;;8.23;7.10;;;;;;;16.49;80.52;99717.59;4979637;28;20035;-82
2021/08/06 03:08:49;;;;;;;8.73;7.82;;;;;;;16.49;80.69;99711.41;4978476;28;20041;-82
2021/08/06 03:11:15;;;;;;;9.77;8.82;;;;;;;16.48;80.76;99710.56;4996927;28;20113;-82
2021/08/06 03:13:40;;;;;;;11.48;9.75;;;;;;;16.44;81.04;99712.47;4995058;28;20039;-82
2021/08/06 03:16:05;;;;;;;11.27;9.98;;;;;;;16.40;80.94;99720.66;4996100;28;20046;-82
2021/08/06 03:18:31;;;;;;;9.27;7.40;;;;;;;16.34;81.50;99712.94;4977264;28;20409;-82
2021/08/06 03:20:57;;;;;;;7.90;7.07;;;;;;;16.25;80.91;99718.66;4995269;28;20069;-82
2021/08/06 03:23:24;;;;;;;9.30;7.50;;;;;;;16.16;81.62;99720.75;4977250;28;20039;-82
2021/08/06 03:25:52;;;;;;;9.63;8.48;;;;;;;16.13;82.06;99720.03;4975969;28;20038;-82
2021/08/06 03:28:18;;;;;;;10.65;7.85;;;;;;;16.09;82.30;99727.28;4980345;28;20026;-83
2021/08/06 03:30:44;;;;;;;8.88;7.70;;;;;;;16.04;82.59;99723.97;4977307;28;20054;-82
2021/08/06 03:33:10;;;;;;;11.18;10.07;;;;;;;16.02;82.89;99715.16;4980569;28;20018;-83
2021/08/06 03:35:35;;;;;;;10.20;9.23;;;;;;;15.97;83.46;99722.47;4973202;28;20106;-82
2021/08/06 03:38:12;;;;;;;8.55;7.35;;;;;;;15.93;83.43;99721.75;4978495;28;20074;-83
2021/08/06 03:40:38;;;;;;;6.93;6.22;;;;;;;15.86;83.52;99716.72;4975704;28;20035;-82
2021/08/06 03:43:03;;;;;;;7.18;6.10;;;;;;;15.88;83.20;99715.75;4992505;28;20117;-82
2021/08/06 03:45:29;;;;;;;9.15;6.93;;;;;;;15.95;83.09;99717.19;4994827;28;20053;-83
2021/08/06 03:47:54;;;;;;;9.27;7.65;;;;;;;16.03;83.09;99713.38;4995481;28;20027;-83
2021/08/06 03:50:20;;;;;;;8.60;7.47;;;;;;;16.04;83.55;99713.31;4996100;28;20028;-82
2021/08/06 03:52:46;;;;;;;7.85;6.00;;;;;;;16.08;83.46;99716.69;4969070;28;20038;-83
2021/08/06 03:55:12;;;;;;;9.25;8.35;;;;;;;16.13;82.81;99710.25;4998590;28;20041;-83
2021/08/06 03:57:48;;;;;;;10.45;8.95;;;;;;;16.14;83.13;99709.34;4993443;28;20114;-82
2021/08/06 04:00:14;;;;;;;8.50;7.38;;;;;;;16.15;83.07;99710.19;4979729;28;20053;-82
2021/08/06 04:02:43;;;;;;;8.10;7.25;;;;;;;16.18;83.32;99708.25;4997515;28;20122;-83
2021/08/06 04:05:10;;;;;;;8.27;7.03;;;;;;;16.21;82.85;99710.78;4980259;28;20049;-82
2021/08/06 04:07:41;;;;;;;6.85;6.15;;;;;;;16.27;82.89;99708.78;4974089;28;20038;-82
2021/08/06 04:10:07;;;;;;;10.20;8.73;;;;;;;16.35;82.74;99707.56;4977609;28;20034;-83
2021/08/06 04:12:33;;;;;;;9.30;8.40;;;;;;;16.44;82.15;99700.97;4962853;28;20049;-82
2021/08/06 04:14:58;;;;;;;11.15;8.40;;;;;;;16.53;82.05;99700.56;4995306;28;20038;-82
2021/08/06 04:17:23;;;;;;;9.43;7.93;;;;;;;16.62;81.50;99702.81;4973705;28;20125;-82
2021/08/06 04:19:49;;;;;;;10.55;9.05;;;;;;;16.70;81.24;99698.94;4974830;28;20138;-83
2021/08/06 04:22:14;;;;;;;10.73;8.15;;;;;;;16.76;80.82;99698.66;4983343;28;20394;-82
2021/08/06 04:24:39;;;;;;;10.85;9.75;;;;;;;16.81;80.60;99702.88;4991558;28;20031;-82
2021/08/06 04:27:06;;;;;;;12.13;10.93;;;;;;;16.86;80.51;99703.53;4993408;28;20037;-82
2021/08/06 04:29:31;;;;;;;11.20;9.40;;;;;;;16.91;80.17;99700.69;4996892;28;20034;-83
2021/08/06 04:31:57;;;;;;;10.43;8.90;;;;;;;16.87;80.25;99704.41;4987469;28;20026;-83
2021/08/06 04:34:22;;;;;;;11.45;9.00;;;;;;;16.82;80.56;99701.97;4999402;28;20051;-82
2021/08/06 04:36:51;;;;;;;9.80;8.85;;;;;;;16.89;80.57;99704.34;4976969;28;20030;-83
2021/08/06 04:39:16;;;;;;;12.05;9.45;;;;;;;16.90;79.72;99704.28;4973303;28;20035;-82
2021/08/06 04:41:42;;;;;;;7.40;6.50;;;;;;;16.82;80.54;99691.31;4981105;28;20052;-82
2021/08/06 04:44:07;;;;;;;6.35;5.55;;;;;;;16.91;80.26;99702.50;4976399;28;20066;-83
2021/08/06 04:46:33;;;;;;;9.93;7.50;;;;;;;16.92;80.57;99702.41;4991904;28;20113;-83
2021/08/06 04:48:58;;;;;;;7.45;6.75;;;;;;;16.98;80.20;99698.63;4968739;28;20042;-83
2021/08/06 04:51:23;;;;;;;7.70;6.75;;;;;;;17.04;80.18;99701.00;4992501;28;20045;-84
2021/08/06 04:53:49;;;;;;;7.93;7.13;;;;;;;17.11;79.52;99698.88;4978162;28;20045;-83
2021/08/06 04:56:15;;;;;;;8.45;6.82;;;;;;;17.17;80.03;99702.16;4977325;28;20035;-82
2021/08/06 04:58:41;;;;;;;7.20;6.38;;;;;;;17.30;79.67;99705.09;4979878;28;20033;-83
2021/08/06 05:01:07;;;;;;;11.55;10.35;;;;;;;17.42;79.22;99707.22;4989046;28;20046;-83
2021/08/06 05:03:33;;;;;;;11.88;10.68;;;;;;;17.48;78.92;99701.56;4975510;28;20061;-83
2021/08/06 05:05:58;;;;;;;10.25;8.93;;;;;;;17.58;78.74;99702.00;4958637;28;20046;-83
2021/08/06 05:08:24;;;;;;;12.23;10.88;;;;;;;17.66;78.07;99697.16;4995843;28;20098;-83
2021/08/06 05:10:50;;;;;;;8.95;7.75;;;;;;;17.66;78.16;99707.81;4982394;28;20062;-83
2021/08/06 05:13:16;;;;;;;9.52;8.52;;;;;;;17.66;78.42;99698.97;4975356;28;20027;-83
2021/08/06 05:15:42;;;;;;;7.93;7.13;;;;;;;17.65;78.25;99702.56;4994563;28;20057;-83
2021/08/06 05:18:08;;;;;;;9.82;7.32;;;;;;;17.68;78.21;99687.28;4983464;28;20031;-83
2021/08/06 05:20:34;;;;;;;8.65;6.55;;;;;;;17.77;77.79;99688.63;4994759;28;20517;-83
2021/08/06 05:23:00;;;;;;;8.88;8.07;;;;;;;17.72;77.82;99686.16;4971546;28;20070;-83
2021/08/06 05:25:26;;;;;;;9.80;8.80;;;;;;;17.76;77.79;99689.53;4980329;28;20039;-83
2021/08/06 05:27:51;;;;;;;9.50;8.48;;;;;;;17.82;77.92;99688.44;4978491;28;20033;-83
2021/08/06 05:30:20;;;;;;;9.35;8.35;;;;;;;17.84;77.75;99690.09;4973709;28;20034;-83
2021/08/06 05:32:47;;;;;;;10.20;8.05;;;;;;;17.83;78.21;99695.50;4963557;28;20058;-83
2021/08/06 05:35:13;;;;;;;11.07;9.60;;;;;;;17.84;78.27;99697.22;4994252;28;20601;-83
2021/08/06 05:37:40;;;;;;;10.73;8.25;;;;;;;17.89;77.95;99690.72;4995642;28;20035;-82
2021/08/06 05:40:07;;;;;;;10.70;9.18;;;;;;;17.85;78.09;99694.47;4997658;28;20497;-83
2021/08/06 05:42:32;;;;;;;10.45;9.35;;;;;;;17.91;78.55;99702.16;4995398;28;20031;-83
2021/08/06 05:44:58;;;;;;;10.05;9.05;;;;;;;18.03;77.86;99699.84;4991837;28;20027;-82
2021/08/06 05:47:24;;;;;;;12.15;10.00;;;;;;;18.08;77.83;99696.00;4980646;28;20047;-83
2021/08/06 05:49:49;;;;;;;10.43;9.43;;;;;;;18.13;78.12;99699.31;4997122;28;20147;-83
2021/08/06 05:52:15;;;;;;;11.73;10.57;;;;;;;18.26;77.36;99694.22;4981415;28;20030;-83
2021/08/06 05:54:42;;;;;;;13.15;11.82;;;;;;;18.49;77.27;99697.47;4982772;28;20106;-83
2021/08/06 05:57:07;;;;;;;10.27;8.65;;;;;;;18.71;76.59;99691.91;4980940;28;20098;-83
2021/08/06 05:59:33;;;;;;;10.65;9.05;;;;;;;18.88;76.16;99680.31;4983129;28;20040;-83
2021/08/06 06:01:58;;;;;;;10.60;9.50;;;;;;;19.07;75.71;99685.53;4968877;28;20045;-83
2021/08/06 06:04:39;;;;;;;15.68;14.18;;;;;;;19.20;75.56;99697.28;4983057;28;20034;-83
2021/08/06 06:07:13;;;;;;;18.15;12.80;;;;;;;19.21;75.15;99693.66;4977733;28;20034;-83
2021/08/06 06:09:38;;;;;;;16.60;12.85;;;;;;;19.19;75.22;99701.75;4959006;28;20069;-83
2021/08/06 06:12:04;;;;;;;14.38;11.52;;;;;;;19.18;74.81;99699.19;4980032;28;20054;-83
2021/08/06 06:14:30;;;;;;;13.27;10.70;;;;;;;19.26;74.97;99700.50;4962780;28;20034;-83
2021/08/06 06:16:56;;;;;;;14.57;12.95;;;;;;;19.37;74.74;99704.38;4978618;28;20039;-83
2021/08/06 06:19:21;;;;;;;12.30;10.25;;;;;;;19.40;74.44;99694.38;4977829;28;20030;-83
2021/08/06 06:21:46;;;;;;;11.75;10.15;;;;;;;19.52;74.38;99703.53;4978025;28;20045;-84
2021/08/06 06:24:13;;;;;;;13.98;12.68;;;;;;;19.39;74.17;99694.47;4977514;28;20023;-83
2021/08/06 06:26:39;;;;;;;12.48;11.20;;;;;;;19.47;73.71;99701.09;4973863;28;20082;-83
2021/08/06 06:29:05;;;;;;;13.70;12.30;;;;;;;19.59;73.33;99701.34;4978373;28;20027;-84
2021/08/06 06:31:33;;;;;;;14.95;11.77;;;;;;;19.61;73.47;99697.66;4957015;28;20034;-83
2021/08/06 06:34:00;;;;;;;12.38;11.07;;;;;;;19.69;73.26;99695.41;4962528;28;20038;-84
2021/08/06 06:36:27;;;;;;;12.55;11.27;;;;;;;19.78;72.21;99693.16;4975238;28;20102;-83
2021/08/06 06:38:52;;;;;;;11.93;10.85;;;;;;;19.93;71.34;99694.97;4974683;28;20027;-84
2021/08/06 06:41:18;;;;;;;13.07;11.88;;;;;;;19.99;70.89;99694.63;4962740;28;20038;-84
2021/08/06 06:43:53;;;;;;;13.35;11.30;;;;;;;20.11;70.42;99701.91;4971598;28;20401;-84
2021/08/06 06:46:18;;;;;;;11.60;10.50;;;;;;;20.18;69.68;99701.56;4978016;28;20102;-84
2021/08/06 06:48:43;;;;;;;11.07;9.88;;;;;;;20.22;68.83;99703.09;4974866;28;20039;-84
2021/08/06 06:51:09;;;;;;;12.63;10.00;;;;;;;20.32;68.20;99702.47;4994375;28;20056;-83
2021/08/06 06:53:35;;;;;;;11.27;9.35;;;;;;;20.40;68.58;99693.13;4972193;28;20042;-83
2021/08/06 06:56:00;;;;;;;15.32;13.82;;;;;;;20.60;68.65;99697.31;4977818;28;20038;-84
2021/08/06 06:58:26;;;;;;;12.65;10.35;;;;;;;20.58;68.19;99695.56;4980581;28;20094;-83
2021/08/06 07:00:51;;;;;;;13.73;10.60;;;;;;;20.69;67.80;99694.91;4983160;28;20038;-83
2021/08/06 07:03:17;;;;;;;14.27;10.88;;;;;;;20.74;67.66;99700.00;4975308;28;20034;-84
2021/08/06 07:05:43;;;;;;;15.35;12.85;;;;;;;20.84;66.84;99702.97;4972464;28;20031;-84
2021/08/06 07:08:08;;;;;;;11.70;9.40;;;;;;;20.88;66.52;99701.81;4962449;28;20125;-83
2021/08/06 07:10:36;;;;;;;12.45;9.55;;;;;;;21.01;66.44;99706.34;4975046;28;20034;-84
2021/08/06 07:13:02;;;;;;;11.95;9.77;;;;;;;21.17;66.00;99697.34;4976504;28;20054;-84
2021/08/06 07:15:27;;;;;;;11.88;8.68;;;;;;;21.21;65.21;99699.72;4978107;28;20041;-84
2021/08/06 07:17:53;;;;;;;9.57;8.25;;;;;;;21.19;65.29;99706.97;4960382;28;20062;-84
2021/08/06 07:20:20;;;;;;;8.20;7.28;;;;;;;21.21;65.13;99702.38;4976552;28;20030;-84
2021/08/06 07:22:46;;;;;;;8.13;7.32;;;;;;;21.47;64.57;99709.78;4974690;28;20042;-83
2021/08/06 07:25:14;;;;;;;10.30;7.05;;;;;;;21.57;63.88;99710.91;4994283;28;20440;-84
2021/08/06 07:27:40;;;;;;;7.88;6.63;;;;;;;21.70;63.50;99710.97;4992077;28;20046;-85
2021/08/06 07:30:08;;;;;;;8.65;7.05;;;;;;;21.71;62.63;99708.19;4971902;28;20030;-83
2021/08/06 07:32:34;;;;;;;7.32;6.45;;;;;;;21.87;61.88;99708.03;4975367;28;20062;-83
2021/08/06 07:35:00;;;;;;;7.45;5.80;;;;;;;21.84;62.17;99714.47;4974172;28;20034;-83
2021/08/06 07:37:26;;;;;;;7.25;5.82;;;;;;;21.93;61.57;99707.66;4966799;28;20039;-84
2021/08/06 07:39:53;;;;;;;9.98;7.07;;;;;;;22.12;61.06;99712.66;4973988;28;20035;-84
2021/08/06 07:42:19;;;;;;;10.80;6.70;;;;;;;22.35;61.39;99712.94;4972502;28;20038;-83
2021/08/06 07:44:45;;;;;;;7.47;6.15;;;;;;;22.51;60.90;99713.63;4990795;28;20042;-84
2021/08/06 07:47:11;;;;;;;7.05;5.60;;;;;;;22.68;60.32;99707.06;4967984;28;20038;-83
2021/08/06 07:49:39;;;;;;;6.68;5.30;;;;;;;22.78;60.31;99704.63;4977555;28;20097;-83
2021/08/06 07:52:04;;;;;;;5.45;4.55;;;;;;;22.81;60.25;99696.31;4990000;28;20038;-83
2021/08/06 07:54:30;;;;;;;6.18;5.57;;;;;;;22.87;59.22;99703.94;4957445;28;20039;-83
2021/08/06 07:56:56;;;;;;;5.85;4.63;;;;;;;22.85;59.62;99697.84;4973384;28;20034;-83
2021/08/06 07:59:21;;;;;;;7.95;4.97;;;;;;;22.83;59.73;99697.09;4994559;28;20034;-84
2021/08/06 08:01:47;;;;;;;6.28;4.88;;;;;;;22.74;59.36;99703.94;4973643;28;20045;-84
2021/08/06 08:04:13;;;;;;;6.80;4.90;;;;;;;22.67;59.24;99698.16;4993544;28;20038;-84
2021/08/06 08:06:38;;;;;;;6.38;5.15;;;;;;;22.57;59.11;99702.44;4977830;28;20030;-83
2021/08/06 08:09:04;;;;;;;7.85;5.10;;;;;;;22.34;59.71;99705.84;4991103;28;20038;-84
2021/08/06 08:11:30;;;;;;;7.07;5.05;;;;;;;22.09;60.19;99702.13;4978276;28;20042;-83
2021/08/06 08:13:55;;;;;;;7.15;5.32;;;;;;;21.97;60.68;99697.53;4990531;28;20065;-83
2021/08/06 08:16:21;;;;;;;5.95;4.63;;;;;;;21.84;61.44;99701.03;4971557;28;20030;-83
2021/08/06 08:18:48;;;;;;;5.85;4.50;;;;;;;21.70;61.44;99695.72;4991824;28;20382;-83
2021/08/06 08:21:14;;;;;;;6.88;4.47;;;;;;;21.77;61.31;99702.44;4960991;28;20037;-83
2021/08/06 08:23:41;;;;;;;7.38;5.00;;;;;;;21.83;60.68;99702.00;4954313;28;20516;-83
2021/08/06 08:26:06;;;;;;;9.93;4.90;;;;;;;21.94;60.92;99704.00;4975363;28;20034;-83
2021/08/06 08:28:33;;;;;;;4.95;4.30;;;;;;;22.07;60.29;99704.03;4971815;28;20046;-83
2021/08/06 08:31:02;;;;;;;5.80;4.50;;;;;;;22.03;58.11;99702.50;4971281;28;20117;-83
2021/08/06 08:33:29;;;;;;;6.45;4.80;;;;;;;22.00;58.87;99708.94;4982844;28;20516;-83
2021/08/06 08:35:56;;;;;;;8.55;4.28;;;;;;;21.99;58.81;99711.75;4989886;28;20035;-83
2021/08/06 08:38:21;;;;;;;6.85;5.55;;;;;;;21.92;58.97;99710.44;4988125;28;20034;-83
2021/08/06 08:40:47;;;;;;;4.55;3.85;;;;;;;21.99;58.25;99711.75;4975224;28;20075;-83
2021/08/06 08:43:13;;;;;;;5.65;4.18;;;;;;;22.09;58.75;99702.13;4988045;28;20037;-83
2021/08/06 08:45:40;;;;;;;6.60;4.43;;;;;;;22.11;58.32;99700.16;4974491;28;20037;-83
2021/08/06 08:48:09;;;;;;;5.63;3.92;;;;;;;22.10;58.24;99702.00;4969272;28;20038;-83
2021/08/06 08:50:36;;;;;;;8.40;7.00;;;;;;;22.38;58.09;99699.31;4963713;28;20045;-83
2021/08/06 08:53:03;;;;;;;5.93;4.25;;;;;;;22.59;56.19;99703.22;4977291;28;20030;-84
2021/08/06 08:55:28;;;;;;;7.20;6.50;;;;;;;22.72;55.97;99698.69;4990843;28;20086;-83
2021/08/06 08:57:54;;;;;;;8.27;6.97;;;;;;;22.76;55.05;99702.88;4978515;28;20494;-83
2021/08/06 09:00:20;;;;;;;6.85;5.35;;;;;;;22.88;55.11;99700.31;4980105;28;20043;-83
2021/08/06 09:02:47;;;;;;;4.88;3.80;;;;;;;23.05;55.12;99691.91;4973194;28;20037;-83
2021/08/06 09:05:20;;;;;;;4.97;2.80;;;;;;;23.06;53.33;99696.34;4975706;28;20117;-82
2021/08/06 09:07:52;;;;;;;7.28;3.40;;;;;;;23.15;54.05;99693.00;4973615;28;20614;-83
2021/08/06 09:10:41;;;;;;;6.45;4.15;;;;;;;23.32;51.95;99690.94;4991103;28;20502;-83
2021/08/06 09:13:26;;;;;;;5.20;3.50;;;;;;;23.28;52.01;99697.50;4978832;28;20057;-83
2021/08/06 09:15:59;;;;;;;5.28;4.35;;;;;;;23.37;52.13;99697.72;4974815;28;20033;-83
2021/08/06 09:18:31;;;;;;;;;;;;;;;23.39;51.62;99694.88;4957106;28;20210;-83
2021/08/06 09:21:19;;;;;;;3.42;2.53;;;;;;;23.52;50.52;99679.53;4975286;28;19964;-83
2021/08/06 09:23:54;;;;;;;4.03;2.40;;;;;;;23.43;49.57;99677.53;4993309;28;20065;-83
2021/08/06 09:26:25;;;;;;;4.30;3.13;;;;;;;23.51;49.54;99677.84;4991917;28;20122;-83
2021/08/06 09:29:02;;;;;;;5.28;3.28;;;;;;;23.74;50.52;99672.63;4995791;28;20404;-83
2021/08/06 09:31:28;;;;;;;4.13;2.53;;;;;;;23.77;49.56;99673.25;4998847;28;20146;-83
2021/08/06 09:34:15;;;;;;;5.50;2.97;;;;;;;23.87;48.45;99668.03;4979401;28;20018;-83
2021/08/06 09:37:09;;;;;;;5.15;2.28;;;;;;;23.83;48.01;99671.91;4979828;28;20134;-83
2021/08/06 09:39:55;;;;;;;4.43;3.00;;;;;;;23.90;48.79;99670.50;4971785;28;20031;-83
2021/08/06 09:42:29;;;;;;;5.18;3.50;;;;;;;23.96;47.93;99667.31;4996295;28;20047;-84
2021/08/06 09:45:07;;;;;;;3.35;1.85;;;;;;;24.05;47.40;99666.66;4978595;28;20072;-83
2021/08/06 09:47:35;;;;;;;3.13;2.13;;;;;;;24.09;46.85;99661.03;4978430;28;20220;-83
2021/08/06 09:50:03;;;;;;;3.97;1.90;;;;;;;24.09;47.18;99663.72;4981356;28;20041;-83
2021/08/06 09:52:36;;;;;;;2.88;2.05;;;;;;;24.21;47.65;99666.34;4991820;28;20036;-83
2021/08/06 09:55:05;;;;;;;7.57;5.60;;;;;;;24.35;47.88;99659.03;4997927;28;20065;-83
2021/08/06 09:57:30;;;;;;;4.25;2.03;;;;;;;24.42;45.95;99654.88;4977688;28;20061;-83
2021/08/06 09:59:58;;;;;;;5.25;2.75;;;;;;;24.41;46.14;99656.69;4958520;28;20094;-82
2021/08/06 10:02:26;;;;;;;5.20;4.20;;;;;;;24.56;46.57;99651.97;4958931;28;20062;-83
2021/08/06 10:04:58;;;;;;;3.00;1.88;;;;;;;24.69;45.50;99655.44;4964075;28;20034;-83
2021/08/06 10:07:25;;;;;;;4.53;2.97;;;;;;;24.73;45.67;99649.78;4978834;28;20042;-82
2021/08/06 10:09:51;;;;;;;3.50;2.22;;;;;;;24.65;44.67;99645.88;4994117;28;20045;-83
2021/08/06 10:12:17;;;;;;;6.40;3.75;;;;;;;24.55;45.47;99642.19;4979408;28;20046;-82
2021/08/06 10:15:17;;;;;;;3.78;2.45;;;;;;;24.74;44.98;99646.97;4973650;28;20038;-82
2021/08/06 10:17:43;;;;;;;3.47;2.28;;;;;;;24.92;45.57;99645.50;4995207;28;20050;-82
2021/08/06 10:20:12;;;;;;;4.15;2.60;;;;;;;25.13;45.69;99636.69;4978594;28;20053;-83
2021/08/06 10:22:37;;;;;;;5.47;2.90;;;;;;;25.22;44.73;99635.94;4976264;28;20041;-82
2021/08/06 10:25:06;;;;;;;5.32;2.70;;;;;;;25.32;44.61;99636.06;4993571;28;20226;-83
2021/08/06 10:27:36;;;;;;;4.72;2.95;;;;;;;25.53;43.93;99628.03;4992645;28;20097;-79
2021/08/06 10:30:05;;;;;;;5.03;3.83;;;;;;;25.58;43.30;99628.50;4975279;28;20045;-82
2021/08/06 10:32:31;;;;;;;4.85;3.30;;;;;;;25.69;43.73;99636.56;4991724;28;20053;-81
2021/08/06 10:35:03;;;;;;;5.63;4.50;;;;;;;25.83;43.38;99635.41;4992704;28;20035;-82
2021/08/06 10:37:55;;;;;;;6.97;3.70;;;;;;;26.12;42.27;99635.72;4992119;28;20053;-83
2021/08/06 10:40:32;;;;;;;;;;;;;;;26.00;40.72;99631.34;4975911;28;20538;-83
2021/08/06 10:42:59;;;;;;;2.42;1.60;;;;;;;25.61;41.34;99627.41;4973160;28;19920;-82
2021/08/06 10:45:52;;;;;;;4.38;2.30;;;;;;;25.55;42.41;99628.78;4994884;28;20125;-83
2021/08/06 10:48:32;;;;;;;3.25;2.03;;;;;;;25.69;41.94;99625.78;4994805;28;20034;-83
2021/08/06 10:51:16;;;;;;;3.63;2.50;;;;;;;26.09;41.30;99619.72;4993085;28;20217;-83
2021/08/06 10:53:46;;;;;;;5.75;3.00;;;;;;;26.34;40.64;99606.81;4991334;28;20293;-82
2021/08/06 10:56:18;;;;;;;4.38;2.58;;;;;;;26.45;40.40;99614.84;4991058;28;20031;-83
2021/08/06 10:58:54;;;;;;;4.95;2.55;;;;;;;26.45;40.78;99604.88;4991809;28;20110;-82
2021/08/06 11:01:30;;;;;;;3.15;2.00;;;;;;;26.27;40.22;99592.09;4996267;28;20039;-83
2021/08/06 11:04:02;;;;;;;3.78;2.60;;;;;;;26.22;41.34;99598.75;5001143;28;20649;-83
2021/08/06 11:06:36;;;;;;;4.13;2.92;;;;;;;26.47;41.46;99595.78;4981197;28;20049;-82
2021/08/06 11:09:10;;;;;;;3.42;2.50;;;;;;;26.80;41.32;99591.97;4969325;28;20087;-82
2021/08/06 11:11:43;;;;;;;2.27;1.60;;;;;;;27.02;39.33;99583.66;4985889;28;20382;-82
2021/08/06 11:14:10;;;;;;;3.42;2.10;;;;;;;27.02;39.62;99588.22;4998457;28;20042;-83
2021/08/06 11:17:01;;;;;;;2.60;1.67;;;;;;;26.96;39.04;99572.50;4981925;28;20033;-83
2021/08/06 11:19:42;;;;;;;3.30;2.53;;;;;;;27.23;39.49;99574.63;4996513;28;20109;-83
2021/08/06 11:22:22;;;;;;;4.13;1.90;;;;;;;27.49;37.90;99572.25;4996141;28;20045;-83
2021/08/06 11:24:48;;;;;;;6.07;4.50;;;;;;;27.73;38.73;99571.81;4981826;28;20049;-83
2021/08/06 11:27:15;;;;;;;3.97;2.60;;;;;;;27.94;38.61;99569.84;4995233;28;20038;-83
2021/08/06 11:29:43;;;;;;;4.95;2.10;;;;;;;28.02;37.65;99565.56;4977198;28;20397;-83
2021/08/06 11:32:14;;;;;;;5.68;3.28;;;;;;;28.00;37.10;99560.25;4995947;28;20080;-83
2021/08/06 11:34:55;;;;;;;3.38;1.67;;;;;;;27.65;37.28;99560.84;4979353;28;20613;-83
2021/08/06 11:37:23;;;;;;;3.33;1.80;;;;;;;27.78;38.16;99549.72;4999571;28;20040;-83
2021/08/06 11:40:10;;;;;;;2.33;1.38;;;;;;;27.88;37.50;99550.59;5003448;28;20049;-83